sensor_id;sensor_type;location;lat;lon;timestamp;P1;durP1;ratioP1;P2;durP2;ratioP2
72125;SDS011;59999;51.676;22.650;2022-11-20T00:00:48;56.38;;;17.00;;
72125;SDS011;59999;51.676;22.650;2022-11-20T00:03:17;54.45;;;17.10;;
72125;SDS011;59999;51.676;22.650;2022-11-20T00:05:43;51.43;;;17.13;;
72125;SDS011;59999;51.676;22.650;2022-11-20T00:08:09;59.13;;;17.80;;
72125;SDS011;59999;51.676;22.650;2022-11-20T00:10:41;51.72;;;17.15;;
72125;SDS011;59999;51.676;22.650;2022-11-20T00:13:07;56.63;;;16.50;;
72125;SDS011;59999;51.676;22.650;2022-11-20T00:15:33;53.35;;;15.60;;
72125;SDS011;59999;51.676;22.650;2022-11-20T00:17:59;57.35;;;18.45;;
72125;SDS011;59999;51.676;22.650;2022-11-20T00:20:26;57.53;;;18.13;;
72125;SDS011;59999;51.676;22.650;2022-11-20T00:22:52;45.50;;;16.70;;
72125;SDS011;59999;51.676;22.650;2022-11-20T00:25:18;51.80;;;16.90;;
72125;SDS011;59999;51.676;22.650;2022-11-20T00:27:44;53.97;;;17.80;;
72125;SDS011;59999;51.676;22.650;2022-11-20T00:30:09;52.25;;;16.73;;
72125;SDS011;59999;51.676;22.650;2022-11-20T00:32:35;63.03;;;19.13;;
72125;SDS011;59999;51.676;22.650;2022-11-20T00:35:01;61.95;;;17.98;;
72125;SDS011;59999;51.676;22.650;2022-11-20T00:37:27;53.00;;;18.03;;
72125;SDS011;59999;51.676;22.650;2022-11-20T00:39:52;50.13;;;17.08;;
72125;SDS011;59999;51.676;22.650;2022-11-20T00:42:18;50.03;;;15.70;;
72125;SDS011;59999;51.676;22.650;2022-11-20T00:44:44;46.63;;;16.55;;
72125;SDS011;59999;51.676;22.650;2022-11-20T00:47:10;48.97;;;17.27;;
72125;SDS011;59999;51.676;22.650;2022-11-20T00:49:35;51.00;;;15.85;;
72125;SDS011;59999;51.676;22.650;2022-11-20T00:52:01;46.93;;;15.77;;
72125;SDS011;59999;51.676;22.650;2022-11-20T00:54:27;54.25;;;17.33;;
72125;SDS011;59999;51.676;22.650;2022-11-20T00:56:53;45.70;;;15.33;;
72125;SDS011;59999;51.676;22.650;2022-11-20T00:59:19;53.85;;;17.23;;
72125;SDS011;59999;51.676;22.650;2022-11-20T01:01:45;45.30;;;15.95;;
72125;SDS011;59999;51.676;22.650;2022-11-20T01:04:10;51.35;;;16.67;;
72125;SDS011;59999;51.676;22.650;2022-11-20T01:06:37;48.88;;;15.40;;
72125;SDS011;59999;51.676;22.650;2022-11-20T01:09:05;46.00;;;13.93;;
72125;SDS011;59999;51.676;22.650;2022-11-20T01:11:40;48.83;;;16.55;;
72125;SDS011;59999;51.676;22.650;2022-11-20T01:14:10;53.35;;;17.35;;
72125;SDS011;59999;51.676;22.650;2022-11-20T01:16:38;54.63;;;16.23;;
72125;SDS011;59999;51.676;22.650;2022-11-20T01:19:09;44.85;;;14.32;;
72125;SDS011;59999;51.676;22.650;2022-11-20T01:21:39;46.83;;;13.17;;
72125;SDS011;59999;51.676;22.650;2022-11-20T01:24:07;43.58;;;15.82;;
72125;SDS011;59999;51.676;22.650;2022-11-20T01:26:36;46.15;;;13.93;;
72125;SDS011;59999;51.676;22.650;2022-11-20T01:29:03;49.83;;;14.93;;
72125;SDS011;59999;51.676;22.650;2022-11-20T01:31:31;50.17;;;15.63;;
72125;SDS011;59999;51.676;22.650;2022-11-20T01:33:59;46.60;;;15.00;;
72125;SDS011;59999;51.676;22.650;2022-11-20T01:36:27;47.70;;;14.57;;
72125;SDS011;59999;51.676;22.650;2022-11-20T01:38:55;40.97;;;15.50;;
72125;SDS011;59999;51.676;22.650;2022-11-20T01:41:26;48.38;;;14.75;;
72125;SDS011;59999;51.676;22.650;2022-11-20T01:44:13;48.40;;;15.95;;
72125;SDS011;59999;51.676;22.650;2022-11-20T01:46:49;45.50;;;15.50;;
72125;SDS011;59999;51.676;22.650;2022-11-20T01:52:07;47.33;;;14.00;;
72125;SDS011;59999;51.676;22.650;2022-11-20T01:57:31;37.95;;;13.13;;
72125;SDS011;59999;51.676;22.650;2022-11-20T02:00:03;45.83;;;16.17;;
72125;SDS011;59999;51.676;22.650;2022-11-20T02:02:34;43.45;;;14.52;;
72125;SDS011;59999;51.676;22.650;2022-11-20T02:05:04;46.25;;;14.27;;
72125;SDS011;59999;51.676;22.650;2022-11-20T02:07:39;38.47;;;13.52;;
72125;SDS011;59999;51.676;22.650;2022-11-20T02:10:05;47.17;;;15.25;;
72125;SDS011;59999;51.676;22.650;2022-11-20T02:12:32;42.27;;;14.47;;
72125;SDS011;59999;51.676;22.650;2022-11-20T02:15:16;45.67;;;15.60;;
72125;SDS011;59999;51.676;22.650;2022-11-20T02:17:42;47.38;;;15.75;;
72125;SDS011;59999;51.676;22.650;2022-11-20T02:20:08;48.13;;;15.00;;
72125;SDS011;59999;51.676;22.650;2022-11-20T02:22:36;44.75;;;13.93;;
72125;SDS011;59999;51.676;22.650;2022-11-20T02:25:07;44.60;;;14.65;;
72125;SDS011;59999;51.676;22.650;2022-11-20T02:27:34;39.13;;;14.80;;
72125;SDS011;59999;51.676;22.650;2022-11-20T02:30:01;50.13;;;15.97;;
72125;SDS011;59999;51.676;22.650;2022-11-20T02:32:31;44.70;;;14.90;;
72125;SDS011;59999;51.676;22.650;2022-11-20T02:34:58;49.95;;;15.05;;
72125;SDS011;59999;51.676;22.650;2022-11-20T02:37:33;42.08;;;15.07;;
72125;SDS011;59999;51.676;22.650;2022-11-20T02:40:02;43.83;;;15.70;;
72125;SDS011;59999;51.676;22.650;2022-11-20T02:42:28;50.65;;;15.63;;
72125;SDS011;59999;51.676;22.650;2022-11-20T02:44:54;47.15;;;15.75;;
72125;SDS011;59999;51.676;22.650;2022-11-20T02:47:20;38.50;;;13.07;;
72125;SDS011;59999;51.676;22.650;2022-11-20T02:49:45;44.83;;;14.85;;
72125;SDS011;59999;51.676;22.650;2022-11-20T02:52:11;45.30;;;14.50;;
72125;SDS011;59999;51.676;22.650;2022-11-20T02:54:37;47.87;;;14.73;;
72125;SDS011;59999;51.676;22.650;2022-11-20T02:57:03;43.15;;;14.15;;
72125;SDS011;59999;51.676;22.650;2022-11-20T02:59:28;42.90;;;13.70;;
72125;SDS011;59999;51.676;22.650;2022-11-20T03:01:54;45.72;;;14.20;;
72125;SDS011;59999;51.676;22.650;2022-11-20T03:04:20;39.70;;;13.43;;
72125;SDS011;59999;51.676;22.650;2022-11-20T03:06:46;39.15;;;13.30;;
72125;SDS011;59999;51.676;22.650;2022-11-20T03:09:11;40.50;;;13.33;;
72125;SDS011;59999;51.676;22.650;2022-11-20T03:11:38;43.00;;;14.65;;
72125;SDS011;59999;51.676;22.650;2022-11-20T03:14:04;42.95;;;14.05;;
72125;SDS011;59999;51.676;22.650;2022-11-20T03:16:30;41.53;;;13.60;;
72125;SDS011;59999;51.676;22.650;2022-11-20T03:18:56;38.83;;;12.63;;
72125;SDS011;59999;51.676;22.650;2022-11-20T03:21:22;34.15;;;13.45;;
72125;SDS011;59999;51.676;22.650;2022-11-20T03:23:48;35.77;;;12.67;;
72125;SDS011;59999;51.676;22.650;2022-11-20T03:26:15;40.83;;;13.00;;
72125;SDS011;59999;51.676;22.650;2022-11-20T03:28:49;34.80;;;11.32;;
72125;SDS011;59999;51.676;22.650;2022-11-20T03:31:21;34.60;;;12.90;;
72125;SDS011;59999;51.676;22.650;2022-11-20T03:33:49;33.57;;;10.50;;
72125;SDS011;59999;51.676;22.650;2022-11-20T03:36:15;32.88;;;12.18;;
72125;SDS011;59999;51.676;22.650;2022-11-20T03:38:43;34.88;;;12.55;;
72125;SDS011;59999;51.676;22.650;2022-11-20T03:41:10;31.67;;;11.32;;
72125;SDS011;59999;51.676;22.650;2022-11-20T03:43:37;31.25;;;11.63;;
72125;SDS011;59999;51.676;22.650;2022-11-20T03:46:04;36.67;;;11.20;;
72125;SDS011;59999;51.676;22.650;2022-11-20T03:48:31;38.50;;;12.05;;
72125;SDS011;59999;51.676;22.650;2022-11-20T03:51:13;42.17;;;13.25;;
72125;SDS011;59999;51.676;22.650;2022-11-20T03:53:43;34.20;;;12.55;;
72125;SDS011;59999;51.676;22.650;2022-11-20T03:56:10;35.97;;;12.20;;
72125;SDS011;59999;51.676;22.650;2022-11-20T03:58:37;34.07;;;11.47;;
72125;SDS011;59999;51.676;22.650;2022-11-20T04:01:11;28.13;;;9.65;;
72125;SDS011;59999;51.676;22.650;2022-11-20T04:03:39;31.23;;;10.77;;
72125;SDS011;59999;51.676;22.650;2022-11-20T04:06:19;29.40;;;10.57;;
72125;SDS011;59999;51.676;22.650;2022-11-20T04:08:48;30.50;;;10.65;;
72125;SDS011;59999;51.676;22.650;2022-11-20T04:11:15;32.20;;;11.17;;
72125;SDS011;59999;51.676;22.650;2022-11-20T04:13:45;34.70;;;10.95;;
72125;SDS011;59999;51.676;22.650;2022-11-20T04:16:13;32.15;;;10.40;;
72125;SDS011;59999;51.676;22.650;2022-11-20T04:18:38;30.35;;;10.68;;
72125;SDS011;59999;51.676;22.650;2022-11-20T04:21:05;31.43;;;9.67;;
72125;SDS011;59999;51.676;22.650;2022-11-20T04:23:31;28.17;;;9.32;;
72125;SDS011;59999;51.676;22.650;2022-11-20T04:26:01;28.90;;;9.45;;
72125;SDS011;59999;51.676;22.650;2022-11-20T04:28:28;31.70;;;11.05;;
72125;SDS011;59999;51.676;22.650;2022-11-20T04:30:54;31.47;;;10.60;;
72125;SDS011;59999;51.676;22.650;2022-11-20T04:33:37;31.15;;;10.00;;
72125;SDS011;59999;51.676;22.650;2022-11-20T04:36:07;30.45;;;9.52;;
72125;SDS011;59999;51.676;22.650;2022-11-20T04:38:35;28.23;;;9.57;;
72125;SDS011;59999;51.676;22.650;2022-11-20T04:41:02;29.58;;;10.07;;
72125;SDS011;59999;51.676;22.650;2022-11-20T04:43:30;27.67;;;10.50;;
72125;SDS011;59999;51.676;22.650;2022-11-20T04:45:57;24.30;;;9.50;;
72125;SDS011;59999;51.676;22.650;2022-11-20T04:48:23;29.15;;;9.32;;
72125;SDS011;59999;51.676;22.650;2022-11-20T04:50:50;29.50;;;9.48;;
72125;SDS011;59999;51.676;22.650;2022-11-20T04:53:16;30.00;;;11.25;;
72125;SDS011;59999;51.676;22.650;2022-11-20T04:55:43;30.73;;;9.77;;
72125;SDS011;59999;51.676;22.650;2022-11-20T04:58:08;31.42;;;10.18;;
72125;SDS011;59999;51.676;22.650;2022-11-20T05:00:34;30.45;;;10.52;;
72125;SDS011;59999;51.676;22.650;2022-11-20T05:03:00;28.60;;;9.67;;
72125;SDS011;59999;51.676;22.650;2022-11-20T05:05:26;29.80;;;10.77;;
72125;SDS011;59999;51.676;22.650;2022-11-20T05:07:52;34.58;;;10.80;;
72125;SDS011;59999;51.676;22.650;2022-11-20T05:10:18;32.10;;;9.77;;
72125;SDS011;59999;51.676;22.650;2022-11-20T05:12:44;29.38;;;9.65;;
72125;SDS011;59999;51.676;22.650;2022-11-20T05:15:09;24.67;;;8.60;;
72125;SDS011;59999;51.676;22.650;2022-11-20T05:17:35;30.85;;;10.77;;
72125;SDS011;59999;51.676;22.650;2022-11-20T05:20:01;29.52;;;10.45;;
72125;SDS011;59999;51.676;22.650;2022-11-20T05:22:27;30.45;;;10.70;;
72125;SDS011;59999;51.676;22.650;2022-11-20T05:24:53;28.95;;;9.40;;
72125;SDS011;59999;51.676;22.650;2022-11-20T05:27:19;30.20;;;9.85;;
72125;SDS011;59999;51.676;22.650;2022-11-20T05:29:45;22.13;;;8.07;;
72125;SDS011;59999;51.676;22.650;2022-11-20T05:32:10;28.60;;;10.20;;
72125;SDS011;59999;51.676;22.650;2022-11-20T05:34:36;29.73;;;9.23;;
72125;SDS011;59999;51.676;22.650;2022-11-20T05:37:02;29.10;;;10.43;;
72125;SDS011;59999;51.676;22.650;2022-11-20T05:39:28;38.38;;;11.63;;
72125;SDS011;59999;51.676;22.650;2022-11-20T05:41:54;34.27;;;10.90;;
72125;SDS011;59999;51.676;22.650;2022-11-20T05:44:38;32.35;;;10.93;;
72125;SDS011;59999;51.676;22.650;2022-11-20T05:47:05;29.15;;;9.85;;
72125;SDS011;59999;51.676;22.650;2022-11-20T05:49:31;33.28;;;9.90;;
72125;SDS011;59999;51.676;22.650;2022-11-20T05:51:57;29.90;;;9.77;;
72125;SDS011;59999;51.676;22.650;2022-11-20T05:54:23;24.77;;;8.95;;
72125;SDS011;59999;51.676;22.650;2022-11-20T05:56:49;32.42;;;10.77;;
72125;SDS011;59999;51.676;22.650;2022-11-20T05:59:15;27.25;;;8.65;;
72125;SDS011;59999;51.676;22.650;2022-11-20T06:01:41;26.70;;;9.37;;
72125;SDS011;59999;51.676;22.650;2022-11-20T06:04:08;27.88;;;9.60;;
72125;SDS011;59999;51.676;22.650;2022-11-20T06:06:33;31.90;;;10.80;;
72125;SDS011;59999;51.676;22.650;2022-11-20T06:08:59;28.98;;;11.40;;
72125;SDS011;59999;51.676;22.650;2022-11-20T06:11:25;35.40;;;11.40;;
72125;SDS011;59999;51.676;22.650;2022-11-20T06:13:51;31.65;;;11.00;;
72125;SDS011;59999;51.676;22.650;2022-11-20T06:16:18;32.27;;;10.97;;
72125;SDS011;59999;51.676;22.650;2022-11-20T06:18:46;29.42;;;10.05;;
72125;SDS011;59999;51.676;22.650;2022-11-20T06:21:12;28.63;;;10.55;;
72125;SDS011;59999;51.676;22.650;2022-11-20T06:23:41;31.77;;;10.90;;
72125;SDS011;59999;51.676;22.650;2022-11-20T06:26:08;30.50;;;9.60;;
72125;SDS011;59999;51.676;22.650;2022-11-20T06:28:35;31.42;;;9.68;;
72125;SDS011;59999;51.676;22.650;2022-11-20T06:31:01;29.92;;;10.90;;
72125;SDS011;59999;51.676;22.650;2022-11-20T06:33:28;27.87;;;9.70;;
72125;SDS011;59999;51.676;22.650;2022-11-20T06:35:57;33.85;;;11.50;;
72125;SDS011;59999;51.676;22.650;2022-11-20T06:38:27;31.80;;;11.40;;
72125;SDS011;59999;51.676;22.650;2022-11-20T06:40:53;31.92;;;10.32;;
72125;SDS011;59999;51.676;22.650;2022-11-20T06:43:19;36.97;;;11.15;;
72125;SDS011;59999;51.676;22.650;2022-11-20T06:45:46;27.30;;;9.50;;
72125;SDS011;59999;51.676;22.650;2022-11-20T06:48:17;29.27;;;10.73;;
72125;SDS011;59999;51.676;22.650;2022-11-20T06:50:43;34.22;;;10.60;;
72125;SDS011;59999;51.676;22.650;2022-11-20T06:53:09;32.70;;;10.30;;
72125;SDS011;59999;51.676;22.650;2022-11-20T06:55:34;31.67;;;11.32;;
72125;SDS011;59999;51.676;22.650;2022-11-20T06:58:00;33.87;;;10.97;;
72125;SDS011;59999;51.676;22.650;2022-11-20T07:00:26;27.88;;;10.35;;
72125;SDS011;59999;51.676;22.650;2022-11-20T07:02:52;33.65;;;11.57;;
72125;SDS011;59999;51.676;22.650;2022-11-20T07:05:18;27.67;;;9.38;;
72125;SDS011;59999;51.676;22.650;2022-11-20T07:07:44;29.63;;;10.63;;
72125;SDS011;59999;51.676;22.650;2022-11-20T07:10:09;36.23;;;11.53;;
72125;SDS011;59999;51.676;22.650;2022-11-20T07:12:35;36.08;;;11.57;;
72125;SDS011;59999;51.676;22.650;2022-11-20T07:15:01;34.50;;;12.13;;
72125;SDS011;59999;51.676;22.650;2022-11-20T07:17:27;29.77;;;11.30;;
72125;SDS011;59999;51.676;22.650;2022-11-20T07:19:53;37.00;;;12.53;;
72125;SDS011;59999;51.676;22.650;2022-11-20T07:22:19;31.77;;;11.65;;
72125;SDS011;59999;51.676;22.650;2022-11-20T07:24:47;35.28;;;12.38;;
72125;SDS011;59999;51.676;22.650;2022-11-20T07:27:13;38.15;;;12.75;;
72125;SDS011;59999;51.676;22.650;2022-11-20T07:29:39;43.80;;;12.47;;
72125;SDS011;59999;51.676;22.650;2022-11-20T07:32:05;34.97;;;11.85;;
72125;SDS011;59999;51.676;22.650;2022-11-20T07:34:31;35.53;;;11.73;;
72125;SDS011;59999;51.676;22.650;2022-11-20T07:36:57;36.38;;;11.77;;
72125;SDS011;59999;51.676;22.650;2022-11-20T07:39:22;35.57;;;11.40;;
72125;SDS011;59999;51.676;22.650;2022-11-20T07:41:48;28.42;;;9.00;;
72125;SDS011;59999;51.676;22.650;2022-11-20T07:44:14;30.73;;;10.97;;
72125;SDS011;59999;51.676;22.650;2022-11-20T07:46:40;27.50;;;9.25;;
72125;SDS011;59999;51.676;22.650;2022-11-20T07:49:05;30.77;;;10.60;;
72125;SDS011;59999;51.676;22.650;2022-11-20T07:51:31;29.73;;;10.80;;
72125;SDS011;59999;51.676;22.650;2022-11-20T07:53:57;27.57;;;9.33;;
72125;SDS011;59999;51.676;22.650;2022-11-20T07:56:23;24.30;;;8.75;;
72125;SDS011;59999;51.676;22.650;2022-11-20T07:58:48;27.98;;;10.18;;
72125;SDS011;59999;51.676;22.650;2022-11-20T08:01:14;22.60;;;7.70;;
72125;SDS011;59999;51.676;22.650;2022-11-20T08:03:40;27.55;;;9.77;;
72125;SDS011;59999;51.676;22.650;2022-11-20T08:06:06;24.27;;;8.83;;
72125;SDS011;59999;51.676;22.650;2022-11-20T08:08:32;24.88;;;9.10;;
72125;SDS011;59999;51.676;22.650;2022-11-20T08:10:58;27.30;;;9.55;;
72125;SDS011;59999;51.676;22.650;2022-11-20T08:13:44;24.98;;;9.13;;
72125;SDS011;59999;51.676;22.650;2022-11-20T08:16:28;27.50;;;9.43;;
72125;SDS011;59999;51.676;22.650;2022-11-20T08:18:54;26.67;;;8.73;;
72125;SDS011;59999;51.676;22.650;2022-11-20T08:21:20;29.55;;;10.13;;
72125;SDS011;59999;51.676;22.650;2022-11-20T08:23:46;29.67;;;9.43;;
72125;SDS011;59999;51.676;22.650;2022-11-20T08:26:12;27.73;;;9.85;;
72125;SDS011;59999;51.676;22.650;2022-11-20T08:28:38;26.73;;;9.03;;
72125;SDS011;59999;51.676;22.650;2022-11-20T08:31:03;28.75;;;10.57;;
72125;SDS011;59999;51.676;22.650;2022-11-20T08:33:29;24.90;;;8.38;;
72125;SDS011;59999;51.676;22.650;2022-11-20T08:36:06;28.07;;;9.43;;
72125;SDS011;59999;51.676;22.650;2022-11-20T08:38:32;24.67;;;8.63;;
72125;SDS011;59999;51.676;22.650;2022-11-20T08:41:00;26.88;;;9.80;;
72125;SDS011;59999;51.676;22.650;2022-11-20T08:43:45;23.45;;;9.35;;
72125;SDS011;59999;51.676;22.650;2022-11-20T08:46:11;30.93;;;11.03;;
72125;SDS011;59999;51.676;22.650;2022-11-20T08:48:37;32.80;;;9.82;;
72125;SDS011;59999;51.676;22.650;2022-11-20T08:51:03;27.77;;;10.18;;
72125;SDS011;59999;51.676;22.650;2022-11-20T08:53:29;29.83;;;10.03;;
72125;SDS011;59999;51.676;22.650;2022-11-20T08:55:56;25.10;;;9.38;;
72125;SDS011;59999;51.676;22.650;2022-11-20T08:58:22;30.50;;;10.63;;
72125;SDS011;59999;51.676;22.650;2022-11-20T09:00:48;29.67;;;11.05;;
72125;SDS011;59999;51.676;22.650;2022-11-20T09:03:14;29.50;;;9.43;;
72125;SDS011;59999;51.676;22.650;2022-11-20T09:05:39;31.20;;;11.27;;
72125;SDS011;59999;51.676;22.650;2022-11-20T09:08:05;29.47;;;9.97;;
72125;SDS011;59999;51.676;22.650;2022-11-20T09:10:31;27.73;;;9.85;;
72125;SDS011;59999;51.676;22.650;2022-11-20T09:12:57;30.40;;;10.48;;
72125;SDS011;59999;51.676;22.650;2022-11-20T09:15:24;26.00;;;9.57;;
72125;SDS011;59999;51.676;22.650;2022-11-20T09:18:00;29.55;;;9.05;;
72125;SDS011;59999;51.676;22.650;2022-11-20T09:20:28;27.30;;;9.65;;
72125;SDS011;59999;51.676;22.650;2022-11-20T09:22:55;25.55;;;9.10;;
72125;SDS011;59999;51.676;22.650;2022-11-20T09:25:21;27.77;;;9.75;;
72125;SDS011;59999;51.676;22.650;2022-11-20T09:27:47;26.17;;;8.83;;
72125;SDS011;59999;51.676;22.650;2022-11-20T09:30:14;26.48;;;9.73;;
72125;SDS011;59999;51.676;22.650;2022-11-20T09:32:40;27.70;;;9.43;;
72125;SDS011;59999;51.676;22.650;2022-11-20T09:35:07;30.57;;;10.73;;
72125;SDS011;59999;51.676;22.650;2022-11-20T09:37:33;31.05;;;10.85;;
72125;SDS011;59999;51.676;22.650;2022-11-20T09:40:00;27.17;;;9.73;;
72125;SDS011;59999;51.676;22.650;2022-11-20T09:53:46;29.13;;;9.45;;
72125;SDS011;59999;51.676;22.650;2022-11-20T09:56:37;27.67;;;9.48;;
72125;SDS011;59999;51.676;22.650;2022-11-20T09:59:06;25.50;;;8.80;;
72125;SDS011;59999;51.676;22.650;2022-11-20T10:01:38;25.00;;;9.23;;
72125;SDS011;59999;51.676;22.650;2022-11-20T10:04:08;28.42;;;9.68;;
72125;SDS011;59999;51.676;22.650;2022-11-20T10:06:44;18.95;;;7.85;;
72125;SDS011;59999;51.676;22.650;2022-11-20T10:09:21;25.48;;;8.68;;
72125;SDS011;59999;51.676;22.650;2022-11-20T10:25:22;25.00;;;9.67;;
72125;SDS011;59999;51.676;22.650;2022-11-20T10:30:30;31.27;;;11.68;;
72125;SDS011;59999;51.676;22.650;2022-11-20T10:33:08;26.08;;;8.82;;
72125;SDS011;59999;51.676;22.650;2022-11-20T10:35:43;30.30;;;10.32;;
72125;SDS011;59999;51.676;22.650;2022-11-20T10:38:34;28.83;;;10.63;;
72125;SDS011;59999;51.676;22.650;2022-11-20T10:41:31;31.92;;;10.32;;
72125;SDS011;59999;51.676;22.650;2022-11-20T10:44:13;31.40;;;11.77;;
72125;SDS011;59999;51.676;22.650;2022-11-20T10:47:00;31.02;;;11.95;;
72125;SDS011;59999;51.676;22.650;2022-11-20T10:49:26;33.40;;;12.35;;
72125;SDS011;59999;51.676;22.650;2022-11-20T10:54:42;36.40;;;10.90;;
72125;SDS011;59999;51.676;22.650;2022-11-20T10:57:20;30.77;;;11.38;;
72125;SDS011;59999;51.676;22.650;2022-11-20T11:05:20;30.47;;;9.93;;
72125;SDS011;59999;51.676;22.650;2022-11-20T11:07:55;36.72;;;12.05;;
72125;SDS011;59999;51.676;22.650;2022-11-20T11:10:32;29.98;;;11.05;;
72125;SDS011;59999;51.676;22.650;2022-11-20T11:13:00;36.35;;;11.13;;
72125;SDS011;59999;51.676;22.650;2022-11-20T11:15:28;30.92;;;11.48;;
72125;SDS011;59999;51.676;22.650;2022-11-20T11:18:05;28.50;;;9.67;;
72125;SDS011;59999;51.676;22.650;2022-11-20T11:20:37;32.03;;;11.52;;
72125;SDS011;59999;51.676;22.650;2022-11-20T11:23:03;27.50;;;11.00;;
72125;SDS011;59999;51.676;22.650;2022-11-20T11:25:34;35.22;;;13.27;;
72125;SDS011;59999;51.676;22.650;2022-11-20T11:28:05;28.58;;;9.30;;
72125;SDS011;59999;51.676;22.650;2022-11-20T11:30:46;25.70;;;9.03;;
72125;SDS011;59999;51.676;22.650;2022-11-20T11:33:30;28.88;;;9.80;;
72125;SDS011;59999;51.676;22.650;2022-11-20T11:36:02;29.27;;;9.93;;
72125;SDS011;59999;51.676;22.650;2022-11-20T11:38:40;38.05;;;11.65;;
72125;SDS011;59999;51.676;22.650;2022-11-20T11:41:09;33.78;;;11.50;;
72125;SDS011;59999;51.676;22.650;2022-11-20T11:43:48;30.50;;;11.07;;
72125;SDS011;59999;51.676;22.650;2022-11-20T11:46:35;32.75;;;10.07;;
72125;SDS011;59999;51.676;22.650;2022-11-20T11:54:10;32.85;;;11.43;;
72125;SDS011;59999;51.676;22.650;2022-11-20T11:56:43;30.07;;;9.77;;
72125;SDS011;59999;51.676;22.650;2022-11-20T11:59:12;35.30;;;11.50;;
72125;SDS011;59999;51.676;22.650;2022-11-20T12:01:43;35.38;;;11.43;;
72125;SDS011;59999;51.676;22.650;2022-11-20T12:10:03;31.37;;;11.27;;
72125;SDS011;59999;51.676;22.650;2022-11-20T12:12:43;36.55;;;11.95;;
72125;SDS011;59999;51.676;22.650;2022-11-20T12:15:13;38.67;;;14.00;;
72125;SDS011;59999;51.676;22.650;2022-11-20T12:17:48;36.83;;;12.27;;
72125;SDS011;59999;51.676;22.650;2022-11-20T12:20:14;37.80;;;12.27;;
72125;SDS011;59999;51.676;22.650;2022-11-20T12:25:12;35.42;;;12.63;;
72125;SDS011;59999;51.676;22.650;2022-11-20T12:30:21;33.93;;;11.87;;
72125;SDS011;59999;51.676;22.650;2022-11-20T12:35:57;33.78;;;11.98;;
72125;SDS011;59999;51.676;22.650;2022-11-20T12:38:49;36.63;;;11.88;;
72125;SDS011;59999;51.676;22.650;2022-11-20T12:50:19;28.30;;;10.13;;
72125;SDS011;59999;51.676;22.650;2022-11-20T12:52:57;27.25;;;9.52;;
72125;SDS011;59999;51.676;22.650;2022-11-20T12:55:42;34.03;;;10.88;;
72125;SDS011;59999;51.676;22.650;2022-11-20T12:58:25;37.27;;;10.90;;
72125;SDS011;59999;51.676;22.650;2022-11-20T13:01:08;34.35;;;10.45;;
72125;SDS011;59999;51.676;22.650;2022-11-20T13:06:58;30.52;;;10.32;;
72125;SDS011;59999;51.676;22.650;2022-11-20T13:09:25;31.13;;;11.15;;
72125;SDS011;59999;51.676;22.650;2022-11-20T13:12:11;28.47;;;10.60;;
72125;SDS011;59999;51.676;22.650;2022-11-20T13:17:57;30.40;;;11.27;;
72125;SDS011;59999;51.676;22.650;2022-11-20T13:20:25;29.17;;;10.48;;
72125;SDS011;59999;51.676;22.650;2022-11-20T13:22:53;29.58;;;11.52;;
72125;SDS011;59999;51.676;22.650;2022-11-20T13:25:36;34.30;;;12.50;;
72125;SDS011;59999;51.676;22.650;2022-11-20T13:28:05;35.58;;;11.13;;
72125;SDS011;59999;51.676;22.650;2022-11-20T13:30:54;32.50;;;11.85;;
72125;SDS011;59999;51.676;22.650;2022-11-20T13:33:29;36.58;;;12.68;;
72125;SDS011;59999;51.676;22.650;2022-11-20T13:36:19;35.38;;;13.52;;
72125;SDS011;59999;51.676;22.650;2022-11-20T13:38:52;41.90;;;14.03;;
72125;SDS011;59999;51.676;22.650;2022-11-20T13:41:23;37.00;;;12.18;;
72125;SDS011;59999;51.676;22.650;2022-11-20T13:46:45;34.67;;;12.23;;
72125;SDS011;59999;51.676;22.650;2022-11-20T13:51:51;33.00;;;11.13;;
72125;SDS011;59999;51.676;22.650;2022-11-20T14:00:17;37.95;;;12.45;;
72125;SDS011;59999;51.676;22.650;2022-11-20T14:05:59;35.70;;;11.30;;
72125;SDS011;59999;51.676;22.650;2022-11-20T14:08:33;39.10;;;13.82;;
72125;SDS011;59999;51.676;22.650;2022-11-20T14:11:06;40.67;;;13.75;;
72125;SDS011;59999;51.676;22.650;2022-11-20T14:16:42;34.50;;;13.35;;
72125;SDS011;59999;51.676;22.650;2022-11-20T14:19:26;40.87;;;12.83;;
72125;SDS011;59999;51.676;22.650;2022-11-20T14:22:05;22.20;;;8.23;;
72125;SDS011;59999;51.676;22.650;2022-11-20T14:27:40;41.72;;;13.68;;
72125;SDS011;59999;51.676;22.650;2022-11-20T14:30:14;47.60;;;15.13;;
72125;SDS011;59999;51.676;22.650;2022-11-20T14:32:42;50.10;;;16.60;;
72125;SDS011;59999;51.676;22.650;2022-11-20T14:35:14;50.40;;;17.13;;
72125;SDS011;59999;51.676;22.650;2022-11-20T14:37:46;66.68;;;23.75;;
72125;SDS011;59999;51.676;22.650;2022-11-20T14:42:54;47.05;;;16.88;;
72125;SDS011;59999;51.676;22.650;2022-11-20T14:45:20;48.80;;;18.07;;
72125;SDS011;59999;51.676;22.650;2022-11-20T14:47:47;50.78;;;17.98;;
72125;SDS011;59999;51.676;22.650;2022-11-20T14:50:16;42.92;;;14.93;;
72125;SDS011;59999;51.676;22.650;2022-11-20T14:52:49;43.78;;;15.45;;
72125;SDS011;59999;51.676;22.650;2022-11-20T14:55:27;47.92;;;16.42;;
72125;SDS011;59999;51.676;22.650;2022-11-20T14:58:03;56.87;;;20.63;;
72125;SDS011;59999;51.676;22.650;2022-11-20T15:00:30;44.67;;;15.25;;
72125;SDS011;59999;51.676;22.650;2022-11-20T15:02:57;45.00;;;16.85;;
72125;SDS011;59999;51.676;22.650;2022-11-20T15:05:36;49.42;;;17.15;;
72125;SDS011;59999;51.676;22.650;2022-11-20T15:08:13;57.70;;;20.50;;
72125;SDS011;59999;51.676;22.650;2022-11-20T15:10:45;64.80;;;25.27;;
72125;SDS011;59999;51.676;22.650;2022-11-20T15:13:12;61.70;;;22.67;;
72125;SDS011;59999;51.676;22.650;2022-11-20T15:15:52;55.45;;;20.15;;
72125;SDS011;59999;51.676;22.650;2022-11-20T15:18:21;53.10;;;20.40;;
72125;SDS011;59999;51.676;22.650;2022-11-20T15:20:55;67.77;;;25.33;;
72125;SDS011;59999;51.676;22.650;2022-11-20T15:23:23;76.75;;;28.50;;
72125;SDS011;59999;51.676;22.650;2022-11-20T15:25:49;68.63;;;25.40;;
72125;SDS011;59999;51.676;22.650;2022-11-20T15:28:21;65.43;;;24.77;;
72125;SDS011;59999;51.676;22.650;2022-11-20T15:30:51;59.90;;;21.40;;
72125;SDS011;59999;51.676;22.650;2022-11-20T15:33:17;57.60;;;22.47;;
72125;SDS011;59999;51.676;22.650;2022-11-20T15:35:43;70.35;;;24.85;;
72125;SDS011;59999;51.676;22.650;2022-11-20T15:38:09;77.03;;;28.95;;
72125;SDS011;59999;51.676;22.650;2022-11-20T15:40:35;77.00;;;28.17;;
72125;SDS011;59999;51.676;22.650;2022-11-20T15:43:02;82.35;;;27.88;;
72125;SDS011;59999;51.676;22.650;2022-11-20T15:45:28;78.72;;;28.40;;
72125;SDS011;59999;51.676;22.650;2022-11-20T15:47:59;76.35;;;27.35;;
72125;SDS011;59999;51.676;22.650;2022-11-20T15:50:27;65.57;;;25.33;;
72125;SDS011;59999;51.676;22.650;2022-11-20T15:52:59;52.75;;;19.08;;
72125;SDS011;59999;51.676;22.650;2022-11-20T15:55:25;47.47;;;16.20;;
72125;SDS011;59999;51.676;22.650;2022-11-20T15:57:51;39.40;;;13.73;;
72125;SDS011;59999;51.676;22.650;2022-11-20T16:00:16;43.00;;;15.05;;
72125;SDS011;59999;51.676;22.650;2022-11-20T16:02:42;37.97;;;13.40;;